createdAt,value
2018-09-25T00:02:24.190Z,17.80
2018-09-25T00:04:57.765Z,17.98
2018-09-25T00:07:30.853Z,17.77
2018-09-25T00:10:04.502Z,18.15
2018-09-25T00:12:37.885Z,17.60
2018-09-25T00:15:11.828Z,17.42
2018-09-25T00:17:44.914Z,17.51
2018-09-25T00:20:18.471Z,17.21
2018-09-25T00:22:51.662Z,17.51
2018-09-25T00:25:24.882Z,17.16
2018-09-25T00:27:58.058Z,17.16
2018-09-25T00:30:31.638Z,17.03
2018-09-25T00:35:56.747Z,17.05
2018-09-25T00:44:04.230Z,16.95
2018-09-25T00:46:37.422Z,16.74
2018-09-25T00:49:11.076Z,16.85
2018-09-25T00:51:44.198Z,16.53
2018-09-25T00:54:17.399Z,16.68
2018-09-25T00:56:50.811Z,17.04
2018-09-25T00:59:23.940Z,16.87
2018-09-25T01:01:57.233Z,16.40
2018-09-25T01:04:30.437Z,16.37
2018-09-25T01:07:03.921Z,16.25
2018-09-25T01:09:37.112Z,16.24
2018-09-25T01:12:10.310Z,16.45
2018-09-25T01:14:43.617Z,16.23
2018-09-25T01:17:16.825Z,16.04
2018-09-25T01:19:50.202Z,16.13
2018-09-25T01:22:23.444Z,16.47
2018-09-25T01:24:56.629Z,16.45
2018-09-25T01:27:29.897Z,15.79
2018-09-25T01:30:03.042Z,16.13
2018-09-25T01:32:36.305Z,16.15
2018-09-25T01:35:10.018Z,16.69
2018-09-25T01:37:43.402Z,16.41
2018-09-25T01:40:16.781Z,16.15
2018-09-25T01:42:50.048Z,16.65
2018-09-25T01:45:23.417Z,16.33
2018-09-25T01:47:56.614Z,16.17
2018-09-25T01:50:29.766Z,16.24
2018-09-25T01:53:03.046Z,16.03
2018-09-25T01:55:36.680Z,16.33
2018-09-25T01:58:09.825Z,16.06
2018-09-25T02:00:43.106Z,16.12
2018-09-25T02:03:16.342Z,15.77
2018-09-25T02:05:49.683Z,15.75
2018-09-25T02:08:22.850Z,15.99
2018-09-25T02:10:56.412Z,15.58
2018-09-25T02:13:29.757Z,15.61
2018-09-25T02:16:03.395Z,15.78
2018-09-25T02:18:36.890Z,15.26
2018-09-25T02:21:09.997Z,15.40
2018-09-25T02:23:43.222Z,14.96
2018-09-25T02:26:16.489Z,15.18
2018-09-25T02:28:49.758Z,15.23
2018-09-25T02:31:23.074Z,15.08
2018-09-25T02:33:56.537Z,15.16
2018-09-25T02:36:29.789Z,15.16
2018-09-25T02:39:03.010Z,14.77
2018-09-25T02:41:36.319Z,14.77
2018-09-25T02:44:09.572Z,15.15
2018-09-25T02:46:42.886Z,14.90
2018-09-25T02:49:16.157Z,14.11
2018-09-25T02:51:49.266Z,14.57
2018-09-25T02:54:22.401Z,14.52
2018-09-25T02:56:55.761Z,14.78
2018-09-25T02:59:28.914Z,14.36
2018-09-25T03:02:02.057Z,14.64
2018-09-25T03:04:35.370Z,14.63
2018-09-25T03:07:08.562Z,14.54
2018-09-25T03:09:41.885Z,14.48
2018-09-25T03:12:15.175Z,14.27
2018-09-25T03:14:48.341Z,14.70
2018-09-25T03:17:21.501Z,14.76
2018-09-25T03:19:54.694Z,14.31
2018-09-25T03:22:27.841Z,14.60
2018-09-25T03:25:01.054Z,14.65
2018-09-25T03:27:34.367Z,14.53
2018-09-25T03:30:07.787Z,14.73
2018-09-25T03:32:41.008Z,14.90
2018-09-25T03:35:14.146Z,15.03
2018-09-25T03:37:47.367Z,14.97
2018-09-25T03:40:20.630Z,14.68
2018-09-25T03:42:53.854Z,14.55
2018-09-25T03:45:27.082Z,14.71
2018-09-25T03:48:00.235Z,14.64
2018-09-25T03:50:33.413Z,14.63
2018-09-25T03:53:06.518Z,14.63
2018-09-25T03:55:39.686Z,14.83
2018-09-25T03:58:12.913Z,14.84
2018-09-25T04:00:45.994Z,14.44
2018-09-25T04:03:19.311Z,14.50
2018-09-25T04:05:52.508Z,14.67
2018-09-25T04:08:25.817Z,14.82
2018-09-25T04:10:58.934Z,14.53
2018-09-25T04:13:32.164Z,15.12
2018-09-25T04:16:05.378Z,14.81
2018-09-25T04:18:38.586Z,14.57
2018-09-25T04:21:11.882Z,14.60
2018-09-25T04:23:45.153Z,14.70
2018-09-25T04:26:18.338Z,14.81
2018-09-25T04:28:51.534Z,15.03
2018-09-25T04:31:24.770Z,14.90
2018-09-25T04:33:58.062Z,14.75
2018-09-25T04:36:31.342Z,14.78
2018-09-25T04:39:04.681Z,15.04
2018-09-25T04:41:37.961Z,14.74
2018-09-25T04:44:11.294Z,14.90
2018-09-25T04:46:44.558Z,14.81
2018-09-25T04:49:17.643Z,14.88
2018-09-25T04:51:50.833Z,14.81
2018-09-25T04:54:24.246Z,14.75
2018-09-25T04:56:57.623Z,14.84
2018-09-25T04:59:30.838Z,14.76
2018-09-25T05:02:04.147Z,14.78
2018-09-25T05:04:37.333Z,14.67
2018-09-25T05:07:10.481Z,14.74
2018-09-25T05:09:43.798Z,14.74
2018-09-25T05:12:17.015Z,14.71
2018-09-25T05:14:50.287Z,14.95
2018-09-25T05:17:23.498Z,14.80
2018-09-25T05:19:56.954Z,14.98
2018-09-25T05:22:30.157Z,14.80
2018-09-25T05:25:03.442Z,14.72
2018-09-25T05:27:36.747Z,15.07
2018-09-25T05:30:10.418Z,15.18
2018-09-25T05:32:43.482Z,14.98
2018-09-25T05:35:16.703Z,15.11
2018-09-25T05:37:49.883Z,14.73
2018-09-25T05:40:23.281Z,14.71
2018-09-25T05:42:56.487Z,15.11
2018-09-25T05:45:29.854Z,14.92
2018-09-25T05:48:03.222Z,14.82
2018-09-25T05:50:37.171Z,14.96
2018-09-25T05:53:10.381Z,14.90
2018-09-25T05:55:43.813Z,14.68
2018-09-25T05:58:17.002Z,14.77
2018-09-25T06:00:50.148Z,14.72
2018-09-25T06:03:23.232Z,14.82
2018-09-25T06:05:56.399Z,14.76
2018-09-25T06:08:29.718Z,14.58
2018-09-25T06:11:02.887Z,14.59
2018-09-25T06:13:36.098Z,15.00
2018-09-25T06:16:09.270Z,14.59
2018-09-25T06:18:42.448Z,14.66
2018-09-25T06:21:15.692Z,14.48
2018-09-25T06:23:48.813Z,14.47
2018-09-25T06:26:22.015Z,14.31
2018-09-25T06:28:55.406Z,14.17
2018-09-25T06:31:28.603Z,14.47
2018-09-25T06:34:01.888Z,14.75
2018-09-25T06:36:35.106Z,14.66
2018-09-25T06:39:08.474Z,14.39
2018-09-25T06:41:41.718Z,14.36
2018-09-25T06:44:15.006Z,14.49
2018-09-25T06:46:48.126Z,14.51
2018-09-25T06:49:21.350Z,14.53
2018-09-25T06:51:54.702Z,14.51
2018-09-25T06:54:27.850Z,14.69
2018-09-25T06:57:01.097Z,14.66
2018-09-25T06:59:34.509Z,14.80
2018-09-25T07:02:07.720Z,14.91
2018-09-25T07:04:41.027Z,14.70
2018-09-25T07:07:14.335Z,14.96
2018-09-25T07:09:47.610Z,15.10
2018-09-25T07:12:20.826Z,15.22
2018-09-25T07:14:53.943Z,15.16
2018-09-25T07:17:27.319Z,15.03
2018-09-25T07:20:00.669Z,15.03
2018-09-25T07:22:34.006Z,15.17
2018-09-25T07:25:07.410Z,15.37
2018-09-25T07:27:40.575Z,15.12
2018-09-25T07:30:13.992Z,15.31
2018-09-25T07:32:47.330Z,15.10
2018-09-25T07:35:20.644Z,15.09
2018-09-25T07:37:54.066Z,15.28
2018-09-25T07:40:27.386Z,15.63
2018-09-25T07:43:00.687Z,15.43
2018-09-25T07:45:33.840Z,15.26
2018-09-25T07:48:07.221Z,15.45
2018-09-25T07:50:40.525Z,15.26
2018-09-25T07:53:14.520Z,15.31
2018-09-25T07:55:48.601Z,15.46
2018-09-25T07:58:22.734Z,15.79
2018-09-25T08:00:56.046Z,16.02
2018-09-25T08:03:29.314Z,16.10
2018-09-25T08:06:02.447Z,15.78
2018-09-25T08:08:35.592Z,15.99
2018-09-25T08:11:09.036Z,16.14
2018-09-25T08:13:42.812Z,16.46
2018-09-25T08:16:16.069Z,16.51
2018-09-25T08:18:49.573Z,16.62
2018-09-25T08:21:23.062Z,16.08
2018-09-25T08:23:56.369Z,16.29
2018-09-25T08:54:24.495Z,16.38
2018-09-25T09:27:19.582Z,17.06
2018-09-25T09:29:52.750Z,16.92
2018-09-25T09:32:26.010Z,17.31
2018-09-25T09:34:59.297Z,16.76
2018-09-25T09:37:32.573Z,17.00
2018-09-25T09:40:05.798Z,17.16
2018-09-25T09:42:39.149Z,16.77
2018-09-25T09:45:12.506Z,16.97
2018-09-25T09:47:45.657Z,16.61
2018-09-25T09:50:19.000Z,16.88
2018-09-25T09:52:52.175Z,17.22
2018-09-25T09:55:25.318Z,17.23
2018-09-25T09:57:58.425Z,17.13
2018-09-25T10:00:31.670Z,17.29
2018-09-25T10:03:05.057Z,17.40
2018-09-25T10:05:38.366Z,17.18
2018-09-25T10:08:11.683Z,17.13
2018-09-25T10:10:45.053Z,16.91
2018-09-25T10:13:18.314Z,17.28
2018-09-25T10:15:51.624Z,16.91
2018-09-25T10:18:25.008Z,16.75
2018-09-25T10:20:58.277Z,16.89
2018-09-25T10:23:31.471Z,17.09
2018-09-25T10:26:04.855Z,17.19
2018-09-25T10:28:38.186Z,17.27
2018-09-25T10:31:11.606Z,17.31
2018-09-25T10:33:44.972Z,17.37
2018-09-25T10:36:18.242Z,17.35
2018-09-25T10:38:51.433Z,17.32
2018-09-25T10:41:24.607Z,17.42
2018-09-25T10:43:57.967Z,17.58
2018-09-25T10:46:31.114Z,17.76
2018-09-25T10:49:04.489Z,17.71
2018-09-25T10:51:37.766Z,17.88
2018-09-25T10:54:10.993Z,17.58
2018-09-25T10:56:44.351Z,17.63
2018-09-25T10:59:17.856Z,17.71
2018-09-25T11:01:51.059Z,18.01
2018-09-25T11:04:24.315Z,18.12
2018-09-25T11:06:57.678Z,18.29
2018-09-25T11:09:30.954Z,18.24
2018-09-25T11:12:04.156Z,18.40
2018-09-25T11:14:37.537Z,18.76
2018-09-25T11:17:10.858Z,18.50
2018-09-25T11:19:44.142Z,18.71
2018-09-25T11:22:17.466Z,18.23
2018-09-25T11:24:50.723Z,18.28
2018-09-25T11:27:23.985Z,18.39
2018-09-25T11:29:57.130Z,18.70
2018-09-25T11:32:30.247Z,18.79
2018-09-25T11:35:03.335Z,18.94
2018-09-25T11:37:36.576Z,18.69
2018-09-25T11:40:10.019Z,18.95
2018-09-25T11:42:43.181Z,18.78
2018-09-25T11:45:16.423Z,19.00
2018-09-25T11:47:49.614Z,19.12
2018-09-25T11:50:22.770Z,18.70
2018-09-25T11:52:56.168Z,18.89
2018-09-25T11:55:29.246Z,18.82
2018-09-25T11:58:02.418Z,18.86
2018-09-25T12:00:35.696Z,19.00
2018-09-25T12:03:09.074Z,19.30
2018-09-25T12:05:42.406Z,19.42
2018-09-25T12:08:15.809Z,19.27
2018-09-25T12:10:48.999Z,19.06
2018-09-25T12:13:22.325Z,19.08
2018-09-25T12:15:55.694Z,19.16
2018-09-25T12:18:29.062Z,19.22
2018-09-25T12:21:02.367Z,19.35
2018-09-25T12:23:35.579Z,19.24
2018-09-25T12:26:08.858Z,19.53
2018-09-25T12:31:44.187Z,19.60
2018-09-25T12:37:31.562Z,19.73
2018-09-25T12:42:45.955Z,19.50
2018-09-25T12:45:19.215Z,19.66
2018-09-25T12:47:52.559Z,19.67
2018-09-25T12:50:25.842Z,19.60
2018-09-25T12:52:59.158Z,19.62
2018-09-25T12:55:32.523Z,19.79
2018-09-25T12:58:05.739Z,19.65
2018-09-25T13:00:38.982Z,19.59
2018-09-25T13:03:12.173Z,19.54
2018-09-25T13:05:45.441Z,19.94
2018-09-25T13:08:18.807Z,19.77
2018-09-25T13:10:52.162Z,19.86
2018-09-25T13:13:25.490Z,19.90
2018-09-25T13:15:58.914Z,19.65
2018-09-25T13:18:32.190Z,19.42
2018-09-25T13:21:05.421Z,19.55
2018-09-25T13:23:38.835Z,19.50
2018-09-25T13:26:12.123Z,19.59
2018-09-25T13:28:45.307Z,19.61
2018-09-25T13:31:18.651Z,19.75
2018-09-25T13:33:51.930Z,19.78
2018-09-25T13:36:25.131Z,19.74
2018-09-25T13:38:58.494Z,19.57
2018-09-25T13:41:31.889Z,19.74
2018-09-25T13:44:05.259Z,19.50
2018-09-25T13:46:38.423Z,19.61
2018-09-25T13:49:12.273Z,19.72
2018-09-25T13:51:45.517Z,19.77
2018-09-25T13:54:18.734Z,19.76
2018-09-25T13:56:52.056Z,19.55
2018-09-25T13:59:25.465Z,19.70
2018-09-25T14:01:58.718Z,19.77
2018-09-25T14:04:32.021Z,19.69
2018-09-25T14:07:05.324Z,19.87
2018-09-25T14:09:38.670Z,19.39
2018-09-25T14:12:11.930Z,19.45
2018-09-25T14:14:45.342Z,19.48
2018-09-25T14:17:18.467Z,19.24
2018-09-25T14:19:51.895Z,19.36
2018-09-25T14:22:25.168Z,19.48
2018-09-25T14:24:58.452Z,19.56
2018-09-25T14:27:31.881Z,19.85
2018-09-25T14:30:05.237Z,19.32
2018-09-25T14:32:38.458Z,19.26
2018-09-25T14:35:11.665Z,19.46
2018-09-25T14:37:44.981Z,19.31
2018-09-25T14:40:18.218Z,19.37
2018-09-25T14:42:51.546Z,19.47
2018-09-25T14:45:24.707Z,19.22
2018-09-25T14:47:58.001Z,19.25
2018-09-25T14:50:31.271Z,19.31
2018-09-25T14:53:04.711Z,19.23
2018-09-25T14:55:38.252Z,19.41
2018-09-25T14:58:11.595Z,19.29
2018-09-25T15:00:44.775Z,19.28
2018-09-25T15:03:18.046Z,19.25
2018-09-25T15:05:51.255Z,19.20
2018-09-25T15:08:24.507Z,18.81
2018-09-25T15:10:57.869Z,18.81
2018-09-25T15:13:31.040Z,18.85
2018-09-25T15:16:04.393Z,19.05
2018-09-25T15:18:37.729Z,18.95
2018-09-25T15:21:11.210Z,18.94
2018-09-25T15:23:44.451Z,18.98
2018-09-25T15:26:17.669Z,18.85
2018-09-25T15:28:50.807Z,18.90
2018-09-25T15:31:24.139Z,19.14
2018-09-25T15:33:57.310Z,18.87
2018-09-25T15:36:30.550Z,18.63
2018-09-25T15:39:03.686Z,18.66
2018-09-25T15:41:36.981Z,18.56
2018-09-25T15:44:10.244Z,18.88
2018-09-25T15:46:43.540Z,19.08
2018-09-25T15:49:16.865Z,18.88
2018-09-25T15:52:01.551Z,18.78
2018-09-25T15:54:34.820Z,18.44
2018-09-25T15:57:08.074Z,18.20
2018-09-25T15:59:41.294Z,18.28
2018-09-25T16:02:14.552Z,18.28
2018-09-25T16:04:47.879Z,18.21
2018-09-25T16:07:21.216Z,18.11
2018-09-25T16:09:54.627Z,18.22
2018-09-25T16:12:27.807Z,18.11
2018-09-25T16:15:01.130Z,17.99
2018-09-25T16:17:34.436Z,17.94
2018-09-25T16:20:07.690Z,18.08
2018-09-25T16:22:40.955Z,17.80
2018-09-25T16:25:14.139Z,17.61
2018-09-25T16:27:47.621Z,17.69
2018-09-25T16:30:21.106Z,17.82
2018-09-25T16:32:54.322Z,17.89
2018-09-25T16:35:27.513Z,17.92
2018-09-25T16:38:01.412Z,17.88
2018-09-25T16:40:34.704Z,18.03
2018-09-25T16:43:08.233Z,17.70
2018-09-25T16:45:41.558Z,17.75
2018-09-25T16:48:14.885Z,17.57
2018-09-25T16:50:48.920Z,17.66
2018-09-25T16:53:22.223Z,17.44
2018-09-25T16:55:56.262Z,17.51
2018-09-25T16:58:29.456Z,17.42
2018-09-25T17:01:02.674Z,17.44
2018-09-25T17:03:36.110Z,17.64
2018-09-25T17:06:09.450Z,17.36
2018-09-25T17:08:42.927Z,17.20
2018-09-25T17:11:16.338Z,17.36
2018-09-25T17:13:49.542Z,17.34
2018-09-25T17:16:22.695Z,17.28
2018-09-25T17:18:56.090Z,17.37
2018-09-25T17:21:29.206Z,17.21
2018-09-25T17:24:02.393Z,17.09
2018-09-25T17:26:35.638Z,17.17
2018-09-25T17:29:08.953Z,17.07
2018-09-25T17:31:42.269Z,16.92
2018-09-25T17:34:15.497Z,16.74
2018-09-25T17:36:48.594Z,16.99
2018-09-25T17:39:21.841Z,16.76
2018-09-25T17:41:54.960Z,17.19
2018-09-25T17:44:28.168Z,17.03
2018-09-25T17:47:01.483Z,16.74
2018-09-25T17:49:34.748Z,16.97
2018-09-25T17:52:07.996Z,17.16
2018-09-25T17:54:41.253Z,16.78
2018-09-25T17:57:14.701Z,16.78
2018-09-25T17:59:47.876Z,16.82
2018-09-25T18:02:21.174Z,16.97
2018-09-25T18:04:54.370Z,16.91
2018-09-25T18:07:27.562Z,16.86
2018-09-25T18:10:00.849Z,16.99
2018-09-25T18:12:34.065Z,16.74
2018-09-25T18:15:07.449Z,16.66
2018-09-25T18:17:40.729Z,16.98
2018-09-25T18:20:13.939Z,16.76
2018-09-25T18:22:47.234Z,16.57
2018-09-25T18:25:20.491Z,16.41
2018-09-25T18:27:53.885Z,16.59
2018-09-25T18:30:27.043Z,16.44
2018-09-25T18:33:00.374Z,16.43
2018-09-25T18:35:33.798Z,16.51
2018-09-25T18:38:07.390Z,16.51
2018-09-25T18:40:40.819Z,16.63
2018-09-25T18:43:14.034Z,16.58
2018-09-25T18:45:47.417Z,16.51
2018-09-25T18:48:20.763Z,16.44
2018-09-25T18:50:54.096Z,16.63
2018-09-25T18:53:27.348Z,16.44
2018-09-25T18:56:00.696Z,16.29
2018-09-25T18:58:33.978Z,16.40
2018-09-25T19:01:07.361Z,16.23
2018-09-25T19:03:40.483Z,16.52
2018-09-25T19:06:13.706Z,16.24
2018-09-25T19:08:47.078Z,16.25
2018-09-25T19:11:20.411Z,16.21
2018-09-25T19:13:53.673Z,15.83
2018-09-25T19:16:26.981Z,15.97
2018-09-25T19:19:00.406Z,16.20
2018-09-25T19:21:33.757Z,15.86
2018-09-25T19:24:07.187Z,16.08
2018-09-25T19:26:40.595Z,16.13
2018-09-25T19:29:13.945Z,15.89
2018-09-25T19:31:47.232Z,15.64
2018-09-25T19:34:20.544Z,15.48
2018-09-25T19:36:53.926Z,15.49
2018-09-25T19:39:27.240Z,15.52
2018-09-25T19:42:00.563Z,15.67
2018-09-25T19:44:33.834Z,15.62
2018-09-25T19:47:07.227Z,15.45
2018-09-25T19:49:40.626Z,15.58
2018-09-25T19:52:13.947Z,15.33
2018-09-25T19:54:47.323Z,15.14
2018-09-25T19:57:20.482Z,15.39
2018-09-25T19:59:53.795Z,15.49
2018-09-25T20:02:26.986Z,15.25
2018-09-25T20:05:00.298Z,15.33
2018-09-25T20:07:33.523Z,15.25
2018-09-25T20:10:06.734Z,15.04
2018-09-25T20:12:39.855Z,15.12
2018-09-25T20:15:13.119Z,15.10
2018-09-25T20:17:46.467Z,15.36
2018-09-25T20:20:19.678Z,15.19
2018-09-25T20:22:52.891Z,15.27
2018-09-25T20:25:26.090Z,15.34
2018-09-25T20:27:59.395Z,15.11
2018-09-25T20:30:32.745Z,15.30
2018-09-25T20:33:06.334Z,15.25
2018-09-25T20:35:39.542Z,15.41
2018-09-25T20:38:12.867Z,15.27
2018-09-25T20:40:46.082Z,15.43
2018-09-25T20:43:19.476Z,15.30
2018-09-25T20:45:52.745Z,15.06
2018-09-25T20:48:26.020Z,15.18
2018-09-25T20:50:59.169Z,14.93
2018-09-25T20:53:32.446Z,14.80
2018-09-25T20:59:09.818Z,14.80
2018-09-25T21:01:43.237Z,14.65
2018-09-25T21:04:17.445Z,14.51
2018-09-25T21:06:52.093Z,14.53
2018-09-25T21:09:26.043Z,14.58
2018-09-25T21:11:59.329Z,14.58
2018-09-25T21:14:33.281Z,14.68
2018-09-25T21:17:06.906Z,14.70
2018-09-25T21:19:40.133Z,15.00
2018-09-25T21:22:13.736Z,14.86
2018-09-25T21:24:47.045Z,14.93
2018-09-25T21:27:20.384Z,14.95
2018-09-25T21:29:53.776Z,14.97
2018-09-25T21:32:27.175Z,14.97
2018-09-25T21:35:00.490Z,14.25
2018-09-25T21:37:33.906Z,14.05
2018-09-25T21:40:07.279Z,14.21
2018-09-25T21:42:40.550Z,14.38
2018-09-25T21:45:13.912Z,14.31
2018-09-25T21:47:47.091Z,13.99
2018-09-25T21:50:20.297Z,14.16
2018-09-25T21:52:53.476Z,14.15
2018-09-25T21:55:26.887Z,14.21
2018-09-25T21:58:00.169Z,14.24
2018-09-25T22:00:33.334Z,14.24
2018-09-25T22:03:06.506Z,14.39
2018-09-25T22:05:39.646Z,14.63
2018-09-25T22:08:12.898Z,14.26
2018-09-25T22:10:46.326Z,14.66
2018-09-25T22:13:19.679Z,14.59
2018-09-25T22:15:52.986Z,14.11
2018-09-25T22:18:26.178Z,14.10
2018-09-25T22:20:59.350Z,14.31
2018-09-25T22:23:32.662Z,14.18
2018-09-25T22:26:05.971Z,14.19
2018-09-25T22:28:39.067Z,14.25
2018-09-25T22:31:12.519Z,14.15
2018-09-25T22:33:45.881Z,14.11
2018-09-25T22:36:19.246Z,14.17
2018-09-25T22:38:52.567Z,13.89
2018-09-25T22:41:25.744Z,14.02
2018-09-25T22:43:58.944Z,13.78
2018-09-25T22:46:32.209Z,14.17
2018-09-25T22:49:05.396Z,14.45
2018-09-25T22:51:38.636Z,14.36
2018-09-25T22:54:11.948Z,14.06
2018-09-25T22:56:45.191Z,13.99
2018-09-25T22:59:18.484Z,13.99
2018-09-25T23:01:51.695Z,14.19
2018-09-25T23:04:24.988Z,14.23
2018-09-25T23:06:58.355Z,13.96
2018-09-25T23:09:31.669Z,13.71
2018-09-25T23:12:04.819Z,14.02
2018-09-25T23:14:38.143Z,14.19
2018-09-25T23:17:11.388Z,13.85
2018-09-25T23:19:44.723Z,14.26
2018-09-25T23:22:17.920Z,14.05
2018-09-25T23:24:51.108Z,14.03
2018-09-25T23:27:24.296Z,13.91
2018-09-25T23:29:57.706Z,14.00
2018-09-25T23:32:30.847Z,14.36
2018-09-25T23:35:04.062Z,14.14
2018-09-25T23:37:37.371Z,14.46
2018-09-25T23:40:09.648Z,14.06
2018-09-25T23:43:44.698Z,13.97
2018-09-25T23:46:17.973Z,13.95
2018-09-25T23:48:52.175Z,14.05
2018-09-25T23:51:25.605Z,13.87
2018-09-25T23:53:58.987Z,14.16
2018-09-25T23:56:32.186Z,14.11
2018-09-25T23:59:03.311Z,14.06
